createdAt,value
2024-01-31T00:02:24.133Z,23.15
2024-01-31T00:05:15.096Z,17.73
2024-01-31T00:08:03.151Z,16.58
2024-01-31T00:10:53.457Z,16.48
2024-01-31T00:13:41.293Z,18.48
2024-01-31T00:16:29.159Z,14.15
2024-01-31T00:19:16.937Z,18.85
2024-01-31T00:22:05.168Z,15.15
2024-01-31T00:24:53.105Z,17.08
2024-01-31T00:27:40.866Z,16.33
2024-01-31T00:30:29.118Z,15.27
2024-01-31T00:33:17.075Z,14.52
2024-01-31T00:36:05.283Z,14.25
2024-01-31T00:38:53.659Z,16.60
2024-01-31T00:41:42.094Z,8.75
2024-01-31T00:44:29.808Z,13.68
2024-01-31T00:47:19.136Z,12.98
2024-01-31T00:50:08.288Z,13.70
2024-01-31T00:52:56.744Z,11.18
2024-01-31T00:55:44.784Z,9.57
2024-01-31T00:58:35.824Z,9.32
2024-01-31T01:01:24.064Z,7.30
2024-01-31T01:04:13.391Z,7.30
2024-01-31T01:07:01.375Z,8.60
2024-01-31T01:09:49.671Z,6.68
2024-01-31T01:12:37.758Z,8.85
2024-01-31T01:15:25.861Z,11.13
2024-01-31T01:18:14.119Z,9.93
2024-01-31T01:21:02.544Z,9.50
2024-01-31T01:23:53.573Z,5.15
2024-01-31T01:26:42.407Z,7.05
2024-01-31T01:29:30.412Z,7.18
2024-01-31T01:32:18.626Z,9.88
2024-01-31T01:35:06.999Z,13.63
2024-01-31T01:37:54.920Z,12.48
2024-01-31T01:40:46.670Z,10.07
2024-01-31T01:43:34.732Z,9.18
2024-01-31T01:46:23.881Z,6.88
2024-01-31T01:49:17.147Z,5.00
2024-01-31T01:52:05.935Z,9.23
2024-01-31T01:54:54.744Z,9.05
2024-01-31T01:57:42.637Z,7.13
2024-01-31T02:00:32.598Z,8.10
2024-01-31T02:03:21.424Z,6.80
2024-01-31T02:06:09.800Z,6.53
2024-01-31T02:09:00.059Z,5.20
2024-01-31T02:11:48.116Z,10.27
2024-01-31T02:14:38.554Z,10.55
2024-01-31T02:17:26.401Z,22.23
2024-01-31T02:20:17.489Z,19.15
2024-01-31T02:23:05.679Z,24.30
2024-01-31T02:25:53.848Z,27.33
2024-01-31T02:28:41.617Z,13.07
2024-01-31T02:31:29.679Z,30.77
2024-01-31T02:34:17.422Z,39.33
2024-01-31T02:37:05.303Z,40.47
2024-01-31T02:39:53.673Z,35.55
2024-01-31T02:42:41.927Z,25.17
2024-01-31T02:45:29.824Z,12.35
2024-01-31T02:48:17.986Z,8.60
2024-01-31T02:51:05.999Z,11.32
2024-01-31T02:53:54.049Z,9.07
2024-01-31T02:56:42.021Z,7.65
2024-01-31T02:59:29.930Z,10.05
2024-01-31T03:02:19.033Z,6.80
2024-01-31T03:05:08.031Z,6.72
2024-01-31T03:07:55.959Z,8.70
2024-01-31T03:10:49.113Z,12.23
2024-01-31T03:13:37.158Z,10.07
2024-01-31T03:16:27.497Z,6.53
2024-01-31T03:19:16.607Z,9.82
2024-01-31T03:22:06.788Z,12.00
2024-01-31T03:24:54.707Z,18.92
2024-01-31T03:27:42.367Z,25.63
2024-01-31T03:30:30.456Z,20.75
2024-01-31T03:33:18.370Z,13.32
2024-01-31T03:36:06.840Z,13.90
2024-01-31T03:38:56.774Z,10.05
2024-01-31T03:41:50.453Z,7.20
2024-01-31T03:44:38.302Z,16.75
2024-01-31T03:47:26.335Z,16.88
2024-01-31T03:50:14.741Z,12.02
2024-01-31T03:53:02.719Z,15.07
2024-01-31T03:55:50.705Z,16.50
2024-01-31T03:58:40.144Z,17.05
2024-01-31T04:01:28.146Z,16.23
2024-01-31T04:04:17.136Z,13.45
2024-01-31T04:07:07.412Z,14.45
2024-01-31T04:09:55.415Z,13.20
2024-01-31T04:12:43.575Z,13.43
2024-01-31T04:15:31.412Z,14.50
2024-01-31T04:18:19.543Z,9.38
2024-01-31T04:21:07.539Z,11.90
2024-01-31T04:23:55.417Z,13.23
2024-01-31T04:26:46.242Z,11.65
2024-01-31T04:29:34.101Z,13.88
2024-01-31T04:32:24.099Z,13.45
2024-01-31T04:35:12.631Z,13.75
2024-01-31T04:38:00.463Z,9.50
2024-01-31T04:40:48.696Z,12.00
2024-01-31T04:43:37.809Z,8.38
2024-01-31T04:46:25.945Z,10.77
2024-01-31T04:49:16.582Z,10.55
2024-01-31T04:52:05.063Z,10.57
2024-01-31T04:54:53.213Z,11.82
2024-01-31T04:57:42.170Z,10.82
2024-01-31T05:00:30.316Z,10.27
2024-01-31T05:03:18.361Z,9.48
2024-01-31T05:06:06.943Z,10.05
2024-01-31T05:08:54.724Z,10.77
2024-01-31T05:11:42.506Z,13.77
2024-01-31T05:14:30.244Z,11.82
2024-01-31T05:17:18.300Z,13.10
2024-01-31T05:20:09.417Z,10.77
2024-01-31T05:23:00.734Z,17.85
2024-01-31T05:25:48.564Z,11.30
2024-01-31T05:28:41.239Z,12.75
2024-01-31T05:31:29.241Z,12.93
2024-01-31T05:34:17.699Z,15.63
2024-01-31T05:37:08.802Z,12.25
2024-01-31T05:40:01.482Z,13.48
2024-01-31T05:42:54.124Z,11.95
2024-01-31T05:45:42.204Z,14.02
2024-01-31T05:48:30.396Z,11.27
2024-01-31T05:51:18.311Z,12.80
2024-01-31T05:54:06.283Z,14.75
2024-01-31T05:56:57.172Z,11.05
2024-01-31T05:59:45.523Z,11.85
2024-01-31T06:02:34.796Z,10.30
2024-01-31T06:05:24.067Z,15.93
2024-01-31T06:08:11.985Z,13.70
2024-01-31T06:11:04.735Z,13.88
2024-01-31T06:13:52.734Z,15.25
2024-01-31T06:16:41.031Z,13.55
2024-01-31T06:19:28.873Z,13.52
2024-01-31T06:22:16.831Z,14.55
2024-01-31T06:25:05.284Z,13.98
2024-01-31T06:27:53.342Z,17.65
2024-01-31T06:30:47.459Z,15.02
2024-01-31T06:33:37.313Z,14.73
2024-01-31T06:36:30.554Z,12.77
2024-01-31T06:39:18.416Z,16.03
2024-01-31T06:42:09.255Z,11.73
2024-01-31T06:45:03.340Z,18.08
2024-01-31T06:47:59.940Z,14.25
2024-01-31T06:50:53.100Z,11.55
2024-01-31T06:53:41.031Z,11.73
2024-01-31T06:56:29.157Z,16.33
2024-01-31T06:59:19.395Z,14.20
2024-01-31T07:02:12.536Z,16.80
2024-01-31T07:05:00.502Z,11.10
2024-01-31T07:07:49.897Z,16.30
2024-01-31T07:10:38.871Z,14.07
2024-01-31T07:13:29.523Z,20.02
2024-01-31T07:16:19.788Z,16.23
2024-01-31T07:19:10.579Z,17.38
2024-01-31T07:22:01.325Z,16.83
2024-01-31T07:24:49.241Z,17.13
2024-01-31T07:27:39.284Z,15.18
2024-01-31T07:30:30.083Z,18.75
2024-01-31T07:33:21.278Z,16.10
2024-01-31T07:36:09.523Z,13.90
2024-01-31T07:38:59.855Z,13.75
2024-01-31T07:41:47.590Z,18.77
2024-01-31T07:44:35.441Z,15.70
2024-01-31T07:47:30.787Z,15.43
2024-01-31T07:50:19.378Z,17.20
2024-01-31T07:53:07.259Z,16.30
2024-01-31T07:55:55.061Z,15.02
2024-01-31T07:58:45.404Z,13.68
2024-01-31T08:01:33.169Z,19.08
2024-01-31T08:04:21.097Z,19.45
2024-01-31T08:07:09.287Z,15.52
2024-01-31T08:09:57.214Z,18.02
2024-01-31T08:12:46.779Z,15.30
2024-01-31T08:15:37.636Z,16.20
2024-01-31T08:18:25.464Z,15.43
2024-01-31T08:21:15.924Z,17.08
2024-01-31T08:24:06.250Z,17.58
2024-01-31T08:26:54.097Z,15.73
2024-01-31T08:29:41.976Z,21.80
2024-01-31T08:32:31.466Z,20.45
2024-01-31T08:35:19.640Z,17.75
2024-01-31T08:38:10.565Z,20.15
2024-01-31T08:40:58.266Z,15.55
2024-01-31T08:43:45.986Z,21.60
2024-01-31T08:46:47.805Z,17.63
2024-01-31T08:49:44.552Z,17.45
2024-01-31T08:52:33.444Z,21.02
2024-01-31T08:55:21.532Z,20.25
2024-01-31T08:58:09.497Z,19.45
2024-01-31T09:00:57.360Z,18.20
2024-01-31T09:03:45.160Z,17.27
2024-01-31T09:06:32.966Z,20.40
2024-01-31T09:09:20.855Z,21.83
2024-01-31T09:12:09.911Z,22.23
2024-01-31T09:14:57.798Z,21.25
2024-01-31T09:17:47.702Z,28.60
2024-01-31T09:20:36.621Z,24.58
2024-01-31T09:23:24.565Z,24.80
2024-01-31T09:26:13.186Z,26.48
2024-01-31T09:29:01.134Z,18.55
2024-01-31T09:31:49.312Z,19.02
2024-01-31T09:34:40.448Z,20.40
2024-01-31T09:37:28.633Z,20.13
2024-01-31T09:40:17.420Z,17.05
2024-01-31T09:43:05.804Z,20.92
2024-01-31T09:45:56.650Z,19.15
2024-01-31T09:48:45.347Z,21.73
2024-01-31T09:51:33.905Z,18.77
2024-01-31T09:54:23.633Z,22.25
2024-01-31T09:57:11.491Z,24.23
2024-01-31T10:00:02.208Z,24.33
2024-01-31T10:02:50.552Z,22.40
2024-01-31T10:05:38.466Z,17.10
2024-01-31T10:08:30.348Z,18.65
2024-01-31T10:11:18.042Z,15.43
2024-01-31T10:14:05.915Z,17.88
2024-01-31T10:16:53.813Z,16.98
2024-01-31T10:19:41.950Z,16.45
2024-01-31T10:22:33.425Z,17.45
2024-01-31T10:25:26.249Z,15.15
2024-01-31T10:28:20.087Z,13.93
2024-01-31T10:31:08.146Z,14.70
2024-01-31T10:33:58.747Z,13.70
2024-01-31T10:37:30.866Z,12.98
2024-01-31T10:39:59.985Z,9.80
2024-01-31T10:42:48.749Z,15.38
2024-01-31T10:45:36.796Z,16.80
2024-01-31T10:48:24.710Z,11.57
2024-01-31T10:51:16.506Z,19.60
2024-01-31T10:54:13.400Z,29.83
2024-01-31T10:57:02.088Z,8.82
2024-01-31T10:59:53.034Z,11.32
2024-01-31T11:02:41.177Z,12.52
2024-01-31T11:05:33.930Z,6.78
2024-01-31T11:08:23.608Z,4.93
2024-01-31T11:11:14.291Z,6.43
2024-01-31T11:14:15.920Z,4.07
2024-01-31T11:17:16.055Z,6.22
2024-01-31T11:20:04.335Z,7.28
2024-01-31T11:22:53.402Z,21.35
2024-01-31T11:25:41.054Z,10.32
2024-01-31T11:28:29.488Z,8.00
2024-01-31T11:31:20.582Z,4.38
2024-01-31T11:34:09.868Z,3.92
2024-01-31T11:36:58.281Z,3.35
2024-01-31T11:39:48.480Z,16.40
2024-01-31T11:42:36.931Z,22.85
2024-01-31T11:45:27.969Z,7.95
2024-01-31T11:48:18.993Z,4.18
2024-01-31T11:51:08.165Z,7.38
2024-01-31T11:53:56.129Z,7.30
2024-01-31T11:56:48.773Z,7.93
2024-01-31T11:59:37.911Z,2.50
2024-01-31T12:02:29.971Z,2.50
2024-01-31T12:05:20.815Z,3.45
2024-01-31T12:08:13.358Z,3.15
2024-01-31T12:11:04.224Z,4.30
2024-01-31T12:13:53.178Z,3.20
2024-01-31T12:16:44.401Z,2.83
2024-01-31T12:19:43.680Z,3.40
2024-01-31T12:22:35.178Z,3.20
2024-01-31T12:25:25.696Z,2.72
2024-01-31T12:28:14.097Z,2.72
2024-01-31T12:31:02.056Z,2.88
2024-01-31T12:33:50.351Z,7.28
2024-01-31T12:36:38.433Z,3.85
2024-01-31T12:39:26.195Z,4.88
2024-01-31T12:42:14.511Z,3.63
2024-01-31T12:45:05.509Z,5.28
2024-01-31T12:47:53.593Z,6.07
2024-01-31T12:50:41.319Z,4.63
2024-01-31T12:53:29.125Z,4.57
2024-01-31T12:56:16.933Z,5.05
2024-01-31T12:59:04.763Z,5.07
2024-01-31T13:01:52.913Z,4.72
2024-01-31T13:04:41.138Z,5.78
2024-01-31T13:07:29.126Z,4.22
2024-01-31T13:10:17.526Z,5.95
2024-01-31T13:13:05.279Z,6.18
2024-01-31T13:15:53.239Z,5.90
2024-01-31T13:18:41.556Z,6.90
2024-01-31T13:21:29.907Z,3.55
2024-01-31T13:24:18.515Z,4.13
2024-01-31T13:27:06.863Z,6.32
2024-01-31T13:29:54.977Z,4.90
2024-01-31T13:32:43.045Z,6.82
2024-01-31T13:35:31.087Z,4.28
2024-01-31T13:38:21.056Z,5.72
2024-01-31T13:41:08.881Z,4.80
2024-01-31T13:43:56.670Z,5.38
2024-01-31T13:46:44.441Z,5.05
2024-01-31T13:49:35.536Z,7.50
2024-01-31T13:52:23.365Z,5.55
2024-01-31T13:55:11.202Z,5.00
2024-01-31T13:57:59.089Z,6.32
2024-01-31T14:00:46.858Z,6.28
2024-01-31T14:03:38.181Z,4.60
2024-01-31T14:06:26.123Z,4.18
2024-01-31T14:09:14.297Z,5.32
2024-01-31T14:12:05.107Z,4.25
2024-01-31T14:14:56.355Z,3.95
2024-01-31T14:17:44.213Z,3.55
2024-01-31T14:20:35.184Z,6.13
2024-01-31T14:23:41.030Z,5.10
2024-01-31T14:26:30.828Z,3.88
2024-01-31T14:29:24.781Z,4.25
2024-01-31T14:32:17.351Z,3.97
2024-01-31T14:35:05.378Z,3.13
2024-01-31T14:37:53.260Z,3.42
2024-01-31T14:40:44.665Z,3.17
2024-01-31T14:43:34.328Z,6.68
2024-01-31T14:46:22.165Z,3.60
2024-01-31T14:49:13.918Z,5.53
2024-01-31T14:52:02.023Z,7.32
2024-01-31T14:54:49.682Z,2.60
2024-01-31T14:57:39.002Z,4.32
2024-01-31T15:00:27.530Z,7.30
2024-01-31T15:03:17.735Z,5.13
2024-01-31T15:06:05.673Z,5.15
2024-01-31T15:08:53.611Z,3.50
2024-01-31T15:11:41.689Z,6.57
2024-01-31T15:14:29.533Z,3.85
2024-01-31T15:17:17.486Z,5.28
2024-01-31T15:20:06.223Z,5.75
2024-01-31T15:22:54.785Z,3.20
2024-01-31T15:25:42.542Z,6.43
2024-01-31T15:28:30.365Z,5.53
2024-01-31T15:31:22.846Z,2.80
2024-01-31T15:34:17.227Z,3.10
2024-01-31T15:37:05.181Z,4.35
2024-01-31T15:39:52.843Z,3.25
2024-01-31T15:42:41.301Z,4.25
2024-01-31T15:45:28.962Z,4.35
2024-01-31T15:48:17.690Z,3.47
2024-01-31T15:51:05.856Z,2.75
2024-01-31T15:53:53.702Z,4.43
2024-01-31T15:56:41.337Z,4.88
2024-01-31T15:59:29.272Z,2.80
2024-01-31T16:02:17.188Z,6.05
2024-01-31T16:05:09.663Z,6.95
2024-01-31T16:07:58.053Z,4.25
2024-01-31T16:10:45.840Z,2.53
2024-01-31T16:13:33.643Z,4.07
2024-01-31T16:16:21.779Z,3.58
2024-01-31T16:19:13.399Z,4.47
2024-01-31T16:22:01.421Z,2.83
2024-01-31T16:24:54.961Z,3.72
2024-01-31T16:27:43.320Z,3.50
2024-01-31T16:30:31.154Z,3.17
2024-01-31T16:33:19.035Z,4.25
2024-01-31T16:36:08.135Z,6.20
2024-01-31T16:38:56.189Z,5.15
2024-01-31T16:41:44.275Z,3.92
2024-01-31T16:44:32.497Z,8.70
2024-01-31T16:47:23.441Z,6.22
2024-01-31T16:50:11.282Z,12.82
2024-01-31T16:52:59.138Z,8.63
2024-01-31T16:55:50.260Z,8.70
2024-01-31T16:58:38.130Z,8.93
2024-01-31T17:01:26.067Z,8.30
2024-01-31T17:04:57.112Z,9.68
2024-01-31T17:07:45.024Z,9.55
2024-01-31T17:10:32.948Z,5.55
2024-01-31T17:13:21.584Z,6.40
2024-01-31T17:16:10.460Z,6.28
2024-01-31T17:18:58.403Z,9.50
2024-01-31T17:21:46.150Z,8.25
2024-01-31T17:24:36.153Z,6.82
2024-01-31T17:27:25.840Z,4.72
2024-01-31T17:30:14.291Z,8.13
2024-01-31T17:33:02.390Z,7.32
2024-01-31T17:35:50.203Z,7.43
2024-01-31T17:38:39.634Z,10.73
2024-01-31T17:41:29.952Z,6.72
2024-01-31T17:44:17.766Z,4.15
2024-01-31T17:47:05.826Z,6.03
2024-01-31T17:49:53.896Z,9.00
2024-01-31T17:52:43.246Z,6.63
2024-01-31T17:55:31.052Z,6.30
2024-01-31T17:58:19.180Z,10.68
2024-01-31T18:01:15.952Z,8.25
2024-01-31T18:04:05.027Z,7.90
2024-01-31T18:06:54.047Z,5.18
2024-01-31T18:09:42.239Z,11.02
2024-01-31T18:12:30.061Z,12.23
2024-01-31T18:15:19.962Z,8.57
2024-01-31T18:18:08.700Z,9.77
2024-01-31T18:20:56.758Z,10.70
2024-01-31T18:23:51.259Z,11.02
2024-01-31T18:26:47.793Z,7.60
2024-01-31T18:29:38.592Z,15.43
2024-01-31T18:32:29.126Z,10.32
2024-01-31T18:35:17.030Z,10.60
2024-01-31T18:38:05.254Z,10.85
2024-01-31T18:41:02.716Z,8.50
2024-01-31T18:43:51.233Z,9.38
2024-01-31T18:46:42.856Z,7.93
2024-01-31T18:49:32.707Z,12.32
2024-01-31T18:52:21.899Z,13.00
2024-01-31T18:55:15.078Z,13.18
2024-01-31T18:58:03.411Z,10.57
2024-01-31T19:00:51.407Z,9.65
2024-01-31T19:03:42.174Z,9.05
2024-01-31T19:06:30.271Z,9.70
2024-01-31T19:09:18.383Z,11.48
2024-01-31T19:12:09.708Z,8.60
2024-01-31T19:15:02.803Z,9.30
2024-01-31T19:17:55.653Z,10.20
2024-01-31T19:20:48.577Z,9.63
2024-01-31T19:23:42.541Z,13.00
2024-01-31T19:29:22.840Z,11.48
2024-01-31T19:32:23.354Z,11.50
2024-01-31T19:35:43.127Z,7.80
2024-01-31T19:50:38.462Z,15.02
2024-01-31T19:53:37.930Z,9.30
2024-01-31T19:56:39.652Z,12.27
2024-01-31T19:59:31.460Z,10.40
2024-01-31T20:02:33.379Z,11.57
2024-01-31T20:05:33.953Z,8.65
2024-01-31T20:08:28.375Z,12.70
2024-01-31T20:11:20.757Z,10.55
2024-01-31T20:14:09.823Z,11.57
2024-01-31T20:17:00.163Z,11.25
2024-01-31T20:19:49.267Z,13.50
2024-01-31T20:22:38.127Z,11.93
2024-01-31T20:25:26.206Z,13.80
2024-01-31T20:28:14.330Z,10.80
2024-01-31T20:31:02.358Z,12.18
2024-01-31T20:33:53.759Z,10.27
2024-01-31T20:36:59.921Z,13.93
2024-01-31T20:39:49.109Z,12.68
2024-01-31T20:42:41.531Z,11.25
2024-01-31T20:45:37.069Z,14.70
2024-01-31T20:48:30.247Z,12.57
2024-01-31T20:51:25.302Z,14.00
2024-01-31T20:54:15.942Z,14.35
2024-01-31T20:57:03.961Z,13.48
2024-01-31T20:59:51.850Z,14.88
2024-01-31T21:02:40.017Z,15.38
2024-01-31T21:05:28.981Z,12.90
2024-01-31T21:08:18.193Z,12.45
2024-01-31T21:11:06.404Z,12.70
2024-01-31T21:13:54.354Z,13.63
2024-01-31T21:16:45.022Z,13.30
2024-01-31T21:19:33.073Z,17.65
2024-01-31T21:22:21.082Z,14.82
2024-01-31T21:25:09.393Z,16.23
2024-01-31T21:27:59.418Z,18.10
2024-01-31T21:30:55.806Z,15.25
2024-01-31T21:33:44.012Z,11.02
2024-01-31T21:36:32.948Z,14.20
2024-01-31T21:39:35.906Z,13.77
2024-01-31T21:42:35.880Z,12.93
2024-01-31T21:45:31.257Z,15.00
2024-01-31T21:48:22.346Z,14.48
2024-01-31T22:07:14.656Z,9.15
2024-01-31T22:39:40.561Z,8.88
2024-01-31T22:42:28.403Z,10.00
2024-01-31T22:45:18.690Z,7.47
2024-01-31T22:48:09.233Z,7.28
2024-01-31T22:51:00.157Z,8.85
2024-01-31T22:53:49.737Z,9.23
2024-01-31T22:56:37.931Z,6.75
2024-01-31T22:59:25.882Z,7.00
2024-01-31T23:02:16.788Z,9.50
2024-01-31T23:05:11.332Z,8.18
2024-01-31T23:08:04.621Z,6.47
2024-01-31T23:10:55.908Z,9.90
2024-01-31T23:13:44.087Z,7.70
2024-01-31T23:16:32.171Z,8.77
2024-01-31T23:19:22.952Z,10.20
2024-01-31T23:22:10.912Z,7.72
2024-01-31T23:25:01.257Z,8.20
2024-01-31T23:27:57.001Z,9.38
2024-01-31T23:30:45.208Z,10.77
2024-01-31T23:33:39.352Z,8.90
2024-01-31T23:36:28.084Z,10.57
2024-01-31T23:39:16.613Z,10.10
2024-01-31T23:42:06.700Z,7.93
2024-01-31T23:44:54.605Z,10.23
2024-01-31T23:47:42.840Z,6.93
2024-01-31T23:50:30.933Z,8.70
2024-01-31T23:53:26.549Z,9.52
2024-01-31T23:56:14.652Z,10.13
2024-01-31T23:59:02.330Z,9.93
